sensor_id;sensor_type;location;lat;lon;timestamp;pressure;altitude;pressure_sealevel;temperature;humidity
52105;BME280;38103;42.776;23.112;2022-09-30T00:01:06;93656.00;;;13.81;100.00
52105;BME280;38103;42.776;23.112;2022-09-30T00:03:32;93657.03;;;13.64;100.00
52105;BME280;38103;42.776;23.112;2022-09-30T00:06:01;93663.38;;;13.58;100.00
52105;BME280;38103;42.776;23.112;2022-09-30T00:08:27;93658.66;;;13.70;100.00
52105;BME280;38103;42.776;23.112;2022-09-30T00:11:10;93663.59;;;13.51;100.00
52105;BME280;38103;42.776;23.112;2022-09-30T00:13:39;93607.22;;;13.28;100.00
52105;BME280;38103;42.776;23.112;2022-09-30T00:16:05;93665.78;;;13.59;100.00
52105;BME280;38103;42.776;23.112;2022-09-30T00:18:31;93643.09;;;13.36;100.00
52105;BME280;38103;42.776;23.112;2022-09-30T00:20:57;93667.03;;;13.46;100.00
52105;BME280;38103;42.776;23.112;2022-09-30T00:23:23;93665.34;;;13.24;100.00
52105;BME280;38103;42.776;23.112;2022-09-30T00:25:48;93662.72;;;13.29;100.00
52105;BME280;38103;42.776;23.112;2022-09-30T00:28:14;93654.75;;;13.29;100.00
52105;BME280;38103;42.776;23.112;2022-09-30T00:30:40;93659.75;;;13.21;100.00
52105;BME280;38103;42.776;23.112;2022-09-30T00:33:06;93661.09;;;13.28;100.00
52105;BME280;38103;42.776;23.112;2022-09-30T00:35:31;93660.63;;;13.37;100.00
52105;BME280;38103;42.776;23.112;2022-09-30T00:37:57;93660.56;;;13.21;100.00
52105;BME280;38103;42.776;23.112;2022-09-30T00:40:25;93649.53;;;12.96;100.00
52105;BME280;38103;42.776;23.112;2022-09-30T00:42:50;93653.56;;;13.10;100.00
52105;BME280;38103;42.776;23.112;2022-09-30T00:45:16;93637.16;;;13.13;100.00
52105;BME280;38103;42.776;23.112;2022-09-30T00:50:12;93648.06;;;12.68;100.00
52105;BME280;38103;42.776;23.112;2022-09-30T00:52:41;93633.72;;;12.69;100.00
52105;BME280;38103;42.776;23.112;2022-09-30T00:55:15;93638.00;;;12.75;100.00
52105;BME280;38103;42.776;23.112;2022-09-30T00:57:45;93636.09;;;12.65;100.00
52105;BME280;38103;42.776;23.112;2022-09-30T01:00:10;93643.28;;;12.70;100.00
52105;BME280;38103;42.776;23.112;2022-09-30T01:02:36;93644.25;;;12.58;100.00
52105;BME280;38103;42.776;23.112;2022-09-30T01:05:01;93646.38;;;12.56;100.00
52105;BME280;38103;42.776;23.112;2022-09-30T01:07:28;93642.63;;;12.52;100.00
52105;BME280;38103;42.776;23.112;2022-09-30T01:09:54;93658.13;;;12.71;100.00
52105;BME280;38103;42.776;23.112;2022-09-30T01:12:23;93661.34;;;12.73;100.00
52105;BME280;38103;42.776;23.112;2022-09-30T01:14:50;93658.69;;;12.78;100.00
52105;BME280;38103;42.776;23.112;2022-09-30T01:28:23;93646.78;;;12.43;100.00
52105;BME280;38103;42.776;23.112;2022-09-30T01:33:43;93643.75;;;12.61;100.00
52105;BME280;38103;42.776;23.112;2022-09-30T01:42:02;93658.59;;;12.57;100.00
52105;BME280;38103;42.776;23.112;2022-09-30T01:44:59;93661.84;;;12.32;100.00
52105;BME280;38103;42.776;23.112;2022-09-30T01:47:47;93670.13;;;12.40;100.00
52105;BME280;38103;42.776;23.112;2022-09-30T01:52:57;93677.66;;;12.21;100.00
52105;BME280;38103;42.776;23.112;2022-09-30T02:01:01;93671.81;;;11.96;100.00
52105;BME280;38103;42.776;23.112;2022-09-30T02:03:35;93672.31;;;11.93;100.00
52105;BME280;38103;42.776;23.112;2022-09-30T02:06:06;93666.47;;;11.91;100.00
52105;BME280;38103;42.776;23.112;2022-09-30T02:11:04;93672.53;;;11.87;100.00
52105;BME280;38103;42.776;23.112;2022-09-30T02:16:07;93675.47;;;11.90;100.00
52105;BME280;38103;42.776;23.112;2022-09-30T02:19:34;93673.31;;;11.87;100.00
52105;BME280;38103;42.776;23.112;2022-09-30T02:22:06;93667.47;;;11.85;100.00
52105;BME280;38103;42.776;23.112;2022-09-30T02:24:34;93666.97;;;11.88;100.00
52105;BME280;38103;42.776;23.112;2022-09-30T02:27:09;93673.31;;;11.87;100.00
52105;BME280;38103;42.776;23.112;2022-09-30T02:29:42;93672.41;;;12.04;100.00
52105;BME280;38103;42.776;23.112;2022-09-30T02:32:21;93678.44;;;12.22;100.00
52105;BME280;38103;42.776;23.112;2022-09-30T02:34:51;93676.94;;;12.31;100.00
52105;BME280;38103;42.776;23.112;2022-09-30T02:37:24;93678.56;;;12.37;100.00
52105;BME280;38103;42.776;23.112;2022-09-30T02:39:56;93677.81;;;12.42;100.00
52105;BME280;38103;42.776;23.112;2022-09-30T02:42:28;93678.59;;;12.43;100.00
52105;BME280;38103;42.776;23.112;2022-09-30T02:45:07;93670.06;;;12.35;100.00
52105;BME280;38103;42.776;23.112;2022-09-30T02:56:16;93681.91;;;12.00;100.00
52105;BME280;38103;42.776;23.112;2022-09-30T02:58:45;93686.38;;;11.94;100.00
52105;BME280;38103;42.776;23.112;2022-09-30T03:01:15;93691.94;;;11.92;100.00
52105;BME280;38103;42.776;23.112;2022-09-30T03:03:48;93683.53;;;12.01;100.00
52105;BME280;38103;42.776;23.112;2022-09-30T03:06:15;93686.63;;;11.92;100.00
52105;BME280;38103;42.776;23.112;2022-09-30T03:08:41;93685.50;;;11.88;100.00
52105;BME280;38103;42.776;23.112;2022-09-30T03:11:13;93651.91;;;11.66;100.00
52105;BME280;38103;42.776;23.112;2022-09-30T03:16:44;93679.16;;;11.89;100.00
52105;BME280;38103;42.776;23.112;2022-09-30T03:30:21;93679.03;;;11.28;100.00
52105;BME280;38103;42.776;23.112;2022-09-30T03:33:09;93683.75;;;11.26;100.00
52105;BME280;38103;42.776;23.112;2022-09-30T03:36:00;93692.63;;;11.37;100.00
52105;BME280;38103;42.776;23.112;2022-09-30T03:44:27;93652.78;;;10.65;100.00
52105;BME280;38103;42.776;23.112;2022-09-30T03:46:59;93674.63;;;10.77;100.00
52105;BME280;38103;42.776;23.112;2022-09-30T03:49:30;93716.13;;;10.94;100.00
52105;BME280;38103;42.776;23.112;2022-09-30T03:51:57;93707.47;;;10.99;100.00
52105;BME280;38103;42.776;23.112;2022-09-30T03:54:24;93716.28;;;11.04;100.00
52105;BME280;38103;42.776;23.112;2022-09-30T03:56:49;93718.72;;;10.89;100.00
52105;BME280;38103;42.776;23.112;2022-09-30T03:59:23;93724.00;;;10.89;100.00
52105;BME280;38103;42.776;23.112;2022-09-30T04:01:50;93718.44;;;11.08;100.00
52105;BME280;38103;42.776;23.112;2022-09-30T04:04:16;93722.06;;;11.01;100.00
52105;BME280;38103;42.776;23.112;2022-09-30T04:06:42;93721.03;;;11.02;100.00
52105;BME280;38103;42.776;23.112;2022-09-30T04:09:07;93718.84;;;10.99;100.00
52105;BME280;38103;42.776;23.112;2022-09-30T04:11:33;93711.81;;;10.88;100.00
52105;BME280;38103;42.776;23.112;2022-09-30T04:13:59;93695.78;;;10.77;100.00
52105;BME280;38103;42.776;23.112;2022-09-30T04:16:27;93685.88;;;10.67;100.00
52105;BME280;38103;42.776;23.112;2022-09-30T04:18:53;93701.59;;;10.74;100.00
52105;BME280;38103;42.776;23.112;2022-09-30T04:21:18;93707.50;;;10.81;100.00
52105;BME280;38103;42.776;23.112;2022-09-30T04:23:44;93708.69;;;10.91;100.00
52105;BME280;38103;42.776;23.112;2022-09-30T04:26:12;93718.38;;;11.02;100.00
52105;BME280;38103;42.776;23.112;2022-09-30T04:28:37;93714.66;;;11.03;100.00
52105;BME280;38103;42.776;23.112;2022-09-30T04:31:05;93715.81;;;11.08;100.00
52105;BME280;38103;42.776;23.112;2022-09-30T04:33:30;93712.88;;;11.26;100.00
52105;BME280;38103;42.776;23.112;2022-09-30T04:35:57;93719.91;;;11.38;100.00
52105;BME280;38103;42.776;23.112;2022-09-30T04:38:24;93726.34;;;11.25;100.00
52105;BME280;38103;42.776;23.112;2022-09-30T04:40:50;93723.44;;;11.26;100.00
52105;BME280;38103;42.776;23.112;2022-09-30T04:43:17;93732.75;;;11.29;100.00
52105;BME280;38103;42.776;23.112;2022-09-30T04:45:47;93745.13;;;11.23;100.00
52105;BME280;38103;42.776;23.112;2022-09-30T04:48:13;93758.03;;;11.20;100.00
52105;BME280;38103;42.776;23.112;2022-09-30T04:50:39;93752.47;;;11.21;100.00
52105;BME280;38103;42.776;23.112;2022-09-30T04:53:08;93757.56;;;11.23;100.00
52105;BME280;38103;42.776;23.112;2022-09-30T04:55:36;93753.44;;;11.32;100.00
52105;BME280;38103;42.776;23.112;2022-09-30T04:58:01;93752.16;;;11.35;100.00
52105;BME280;38103;42.776;23.112;2022-09-30T05:00:26;93750.66;;;11.44;100.00
52105;BME280;38103;42.776;23.112;2022-09-30T05:02:52;93741.03;;;11.55;100.00
52105;BME280;38103;42.776;23.112;2022-09-30T05:05:17;93751.06;;;11.98;100.00
52105;BME280;38103;42.776;23.112;2022-09-30T05:07:43;93754.47;;;12.44;100.00
52105;BME280;38103;42.776;23.112;2022-09-30T05:10:10;93762.72;;;12.80;100.00
52105;BME280;38103;42.776;23.112;2022-09-30T05:12:36;93765.63;;;13.17;100.00
52105;BME280;38103;42.776;23.112;2022-09-30T05:15:03;93766.31;;;13.45;100.00
52105;BME280;38103;42.776;23.112;2022-09-30T05:17:30;93757.56;;;13.93;100.00
52105;BME280;38103;42.776;23.112;2022-09-30T05:19:55;93757.88;;;14.13;100.00
52105;BME280;38103;42.776;23.112;2022-09-30T05:22:21;93755.53;;;14.32;100.00
52105;BME280;38103;42.776;23.112;2022-09-30T05:24:49;93754.78;;;14.52;100.00
52105;BME280;38103;42.776;23.112;2022-09-30T05:27:14;93748.94;;;14.66;100.00
52105;BME280;38103;42.776;23.112;2022-09-30T05:29:39;93753.50;;;14.87;100.00
52105;BME280;38103;42.776;23.112;2022-09-30T05:32:05;93763.06;;;15.08;100.00
52105;BME280;38103;42.776;23.112;2022-09-30T05:34:32;93732.13;;;15.23;100.00
52105;BME280;38103;42.776;23.112;2022-09-30T05:36:57;93768.78;;;15.73;100.00
52105;BME280;38103;42.776;23.112;2022-09-30T05:39:22;93780.94;;;16.06;100.00
52105;BME280;38103;42.776;23.112;2022-09-30T05:41:48;93780.75;;;16.48;100.00
52105;BME280;38103;42.776;23.112;2022-09-30T05:44:13;93778.94;;;16.78;96.83
52105;BME280;38103;42.776;23.112;2022-09-30T05:46:38;93779.59;;;17.00;95.17
52105;BME280;38103;42.776;23.112;2022-09-30T05:49:04;93747.31;;;16.96;94.15
52105;BME280;38103;42.776;23.112;2022-09-30T05:51:29;93761.13;;;17.08;93.01
52105;BME280;38103;42.776;23.112;2022-09-30T05:53:55;93772.63;;;17.04;92.47
52105;BME280;38103;42.776;23.112;2022-09-30T05:56:20;93779.38;;;17.31;92.29
52105;BME280;38103;42.776;23.112;2022-09-30T05:58:46;93775.09;;;17.60;90.54
52105;BME280;38103;42.776;23.112;2022-09-30T06:01:13;93787.59;;;17.89;86.83
52105;BME280;38103;42.776;23.112;2022-09-30T06:03:39;93771.31;;;18.10;86.81
52105;BME280;38103;42.776;23.112;2022-09-30T06:06:05;93799.81;;;18.83;85.22
52105;BME280;38103;42.776;23.112;2022-09-30T06:08:31;93798.88;;;18.93;82.32
52105;BME280;38103;42.776;23.112;2022-09-30T06:10:57;93812.75;;;18.37;85.00
52105;BME280;38103;42.776;23.112;2022-09-30T06:13:24;93811.31;;;18.64;83.48
52105;BME280;38103;42.776;23.112;2022-09-30T06:15:57;93813.63;;;18.52;83.41
52105;BME280;38103;42.776;23.112;2022-09-30T06:18:23;93815.00;;;18.88;81.83
52105;BME280;38103;42.776;23.112;2022-09-30T06:20:50;93816.22;;;18.38;82.02
52105;BME280;38103;42.776;23.112;2022-09-30T06:23:16;93820.00;;;18.75;83.56
52105;BME280;38103;42.776;23.112;2022-09-30T06:25:41;93820.38;;;19.41;80.22
52105;BME280;38103;42.776;23.112;2022-09-30T06:28:07;93825.03;;;19.69;76.86
52105;BME280;38103;42.776;23.112;2022-09-30T06:30:33;93824.53;;;20.09;77.13
52105;BME280;38103;42.776;23.112;2022-09-30T06:32:58;93825.56;;;20.27;73.78
52105;BME280;38103;42.776;23.112;2022-09-30T06:35:25;93817.09;;;20.34;74.16
52105;BME280;38103;42.776;23.112;2022-09-30T06:37:52;93844.13;;;20.52;74.20
52105;BME280;38103;42.776;23.112;2022-09-30T06:40:18;93847.06;;;19.80;77.06
52105;BME280;38103;42.776;23.112;2022-09-30T06:42:45;93859.81;;;19.88;76.42
52105;BME280;38103;42.776;23.112;2022-09-30T06:45:12;93851.22;;;19.58;77.09
52105;BME280;38103;42.776;23.112;2022-09-30T06:47:38;93836.63;;;19.30;79.56
52105;BME280;38103;42.776;23.112;2022-09-30T06:50:04;93854.88;;;18.90;82.19
52105;BME280;38103;42.776;23.112;2022-09-30T06:52:29;93860.31;;;19.42;81.53
52105;BME280;38103;42.776;23.112;2022-09-30T06:54:55;93850.06;;;19.78;78.78
52105;BME280;38103;42.776;23.112;2022-09-30T06:57:24;93861.94;;;19.58;79.75
52105;BME280;38103;42.776;23.112;2022-09-30T06:59:52;93861.94;;;19.58;80.14
52105;BME280;38103;42.776;23.112;2022-09-30T07:02:18;93865.88;;;19.46;79.85
52105;BME280;38103;42.776;23.112;2022-09-30T07:04:43;93861.31;;;19.47;81.06
52105;BME280;38103;42.776;23.112;2022-09-30T07:07:08;93828.25;;;19.18;80.90
52105;BME280;38103;42.776;23.112;2022-09-30T07:09:34;93873.88;;;19.32;83.76
52105;BME280;38103;42.776;23.112;2022-09-30T07:12:00;93873.09;;;19.46;81.85
52105;BME280;38103;42.776;23.112;2022-09-30T07:14:25;93878.84;;;19.72;81.73
52105;BME280;38103;42.776;23.112;2022-09-30T07:16:51;93885.19;;;20.10;79.14
52105;BME280;38103;42.776;23.112;2022-09-30T07:19:17;93871.53;;;19.92;80.08
52105;BME280;38103;42.776;23.112;2022-09-30T07:21:49;93871.47;;;20.26;77.80
52105;BME280;38103;42.776;23.112;2022-09-30T07:24:16;93877.25;;;20.19;80.02
52105;BME280;38103;42.776;23.112;2022-09-30T07:26:41;93867.63;;;20.32;79.91
52105;BME280;38103;42.776;23.112;2022-09-30T07:29:10;93867.22;;;20.53;79.20
52105;BME280;38103;42.776;23.112;2022-09-30T07:31:36;93839.94;;;20.60;79.50
52105;BME280;38103;42.776;23.112;2022-09-30T07:34:04;93853.88;;;20.99;78.81
52105;BME280;38103;42.776;23.112;2022-09-30T07:36:31;93885.34;;;21.13;80.89
52105;BME280;38103;42.776;23.112;2022-09-30T07:38:57;93883.38;;;21.27;79.47
52105;BME280;38103;42.776;23.112;2022-09-30T07:41:25;93888.41;;;21.06;79.54
52105;BME280;38103;42.776;23.112;2022-09-30T07:43:55;93895.75;;;21.28;77.64
52105;BME280;38103;42.776;23.112;2022-09-30T07:46:26;93895.31;;;20.84;79.60
52105;BME280;38103;42.776;23.112;2022-09-30T07:48:55;93899.44;;;20.53;79.89
52105;BME280;38103;42.776;23.112;2022-09-30T07:51:33;93897.63;;;20.62;80.42
52105;BME280;38103;42.776;23.112;2022-09-30T07:54:01;93898.41;;;20.77;76.04
52105;BME280;38103;42.776;23.112;2022-09-30T07:56:27;93893.50;;;21.07;74.19
52105;BME280;38103;42.776;23.112;2022-09-30T07:58:57;93907.59;;;21.50;71.73
52105;BME280;38103;42.776;23.112;2022-09-30T08:01:25;93904.63;;;21.84;68.70
52105;BME280;38103;42.776;23.112;2022-09-30T08:03:55;93905.56;;;21.79;70.38
52105;BME280;38103;42.776;23.112;2022-09-30T08:06:23;93903.69;;;21.80;71.48
52105;BME280;38103;42.776;23.112;2022-09-30T08:08:51;93909.31;;;21.69;71.51
52105;BME280;38103;42.776;23.112;2022-09-30T08:11:17;93907.59;;;21.50;71.71
52105;BME280;38103;42.776;23.112;2022-09-30T08:13:43;93890.06;;;20.64;74.90
52105;BME280;38103;42.776;23.112;2022-09-30T08:16:08;93896.25;;;20.23;76.52
52105;BME280;38103;42.776;23.112;2022-09-30T08:18:35;93915.59;;;19.72;80.45
52105;BME280;38103;42.776;23.112;2022-09-30T08:21:04;93917.44;;;19.91;83.28
52105;BME280;38103;42.776;23.112;2022-09-30T08:23:31;93926.97;;;19.83;82.05
52105;BME280;38103;42.776;23.112;2022-09-30T08:26:03;93945.41;;;19.70;84.50
52105;BME280;38103;42.776;23.112;2022-09-30T08:28:28;93947.94;;;20.14;77.32
52105;BME280;38103;42.776;23.112;2022-09-30T08:31:05;93939.41;;;20.40;80.08
52105;BME280;38103;42.776;23.112;2022-09-30T08:33:31;93945.56;;;20.55;79.04
52105;BME280;38103;42.776;23.112;2022-09-30T08:36:10;93939.91;;;20.71;78.12
52105;BME280;38103;42.776;23.112;2022-09-30T08:38:36;93949.34;;;20.54;76.93
52105;BME280;38103;42.776;23.112;2022-09-30T08:46:46;93939.97;;;20.94;74.85
52105;BME280;38103;42.776;23.112;2022-09-30T08:52:18;93960.28;;;20.58;76.23
52105;BME280;38103;42.776;23.112;2022-09-30T08:54:48;93965.06;;;20.32;78.11
52105;BME280;38103;42.776;23.112;2022-09-30T08:57:14;93956.00;;;20.42;76.84
52105;BME280;38103;42.776;23.112;2022-09-30T08:59:47;93962.88;;;20.49;76.60
52105;BME280;38103;42.776;23.112;2022-09-30T09:04:38;93924.56;;;20.85;70.40
52105;BME280;38103;42.776;23.112;2022-09-30T09:07:17;93958.00;;;21.44;63.95
52105;BME280;38103;42.776;23.112;2022-09-30T09:10:02;93973.59;;;21.94;60.52
52105;BME280;38103;42.776;23.112;2022-09-30T09:15:21;93969.94;;;22.44;55.76
52105;BME280;38103;42.776;23.112;2022-09-30T09:20:21;93967.38;;;22.80;55.71
52105;BME280;38103;42.776;23.112;2022-09-30T09:22:48;93975.81;;;22.96;54.89
52105;BME280;38103;42.776;23.112;2022-09-30T09:25:17;93970.75;;;22.95;52.87
52105;BME280;38103;42.776;23.112;2022-09-30T09:27:50;93960.72;;;22.86;51.56
52105;BME280;38103;42.776;23.112;2022-09-30T09:30:22;93973.88;;;22.79;53.98
52105;BME280;38103;42.776;23.112;2022-09-30T09:32:52;93964.22;;;22.78;52.14
52105;BME280;38103;42.776;23.112;2022-09-30T09:35:50;93969.34;;;22.97;52.50
52105;BME280;38103;42.776;23.112;2022-09-30T09:38:20;93972.53;;;23.17;52.49
52105;BME280;38103;42.776;23.112;2022-09-30T09:46:44;93980.31;;;22.37;53.89
52105;BME280;38103;42.776;23.112;2022-09-30T09:49:31;93982.41;;;22.40;51.22
52105;BME280;38103;42.776;23.112;2022-09-30T09:54:43;93976.63;;;22.56;53.13
52105;BME280;38103;42.776;23.112;2022-09-30T09:57:11;93969.09;;;22.76;52.96
52105;BME280;38103;42.776;23.112;2022-09-30T10:03:19;93982.53;;;22.67;51.79
52105;BME280;38103;42.776;23.112;2022-09-30T10:06:06;93974.22;;;22.86;49.97
52105;BME280;38103;42.776;23.112;2022-09-30T10:08:35;93978.66;;;22.82;49.28
52105;BME280;38103;42.776;23.112;2022-09-30T10:11:22;93982.91;;;22.74;51.15
52105;BME280;38103;42.776;23.112;2022-09-30T10:13:48;93985.78;;;22.87;50.66
52105;BME280;38103;42.776;23.112;2022-09-30T10:16:33;93980.28;;;23.01;50.27
52105;BME280;38103;42.776;23.112;2022-09-30T10:19:03;93976.81;;;23.09;49.00
52105;BME280;38103;42.776;23.112;2022-09-30T10:21:29;93967.97;;;23.27;48.69
52105;BME280;38103;42.776;23.112;2022-09-30T10:23:55;93968.94;;;23.40;49.28
52105;BME280;38103;42.776;23.112;2022-09-30T10:26:27;93961.75;;;23.17;47.61
52105;BME280;38103;42.776;23.112;2022-09-30T10:29:00;93970.38;;;23.37;50.40
52105;BME280;38103;42.776;23.112;2022-09-30T10:31:36;93976.22;;;23.48;46.88
52105;BME280;38103;42.776;23.112;2022-09-30T10:36:40;93964.97;;;23.46;47.25
52105;BME280;38103;42.776;23.112;2022-09-30T10:39:21;93965.63;;;23.61;48.77
52105;BME280;38103;42.776;23.112;2022-09-30T10:41:48;93968.75;;;23.27;45.53
52105;BME280;38103;42.776;23.112;2022-09-30T10:44:19;93964.16;;;23.46;47.07
52105;BME280;38103;42.776;23.112;2022-09-30T10:46:47;93961.97;;;23.57;45.60
52105;BME280;38103;42.776;23.112;2022-09-30T10:49:36;93962.59;;;23.53;46.29
52105;BME280;38103;42.776;23.112;2022-09-30T10:52:04;93967.69;;;23.73;48.00
52105;BME280;38103;42.776;23.112;2022-09-30T10:57:04;93967.31;;;24.10;47.34
52105;BME280;38103;42.776;23.112;2022-09-30T10:59:37;93952.56;;;23.98;46.93
52105;BME280;38103;42.776;23.112;2022-09-30T11:02:13;93969.72;;;24.03;44.75
52105;BME280;38103;42.776;23.112;2022-09-30T11:05:13;93972.72;;;24.10;46.15
52105;BME280;38103;42.776;23.112;2022-09-30T11:08:32;93973.97;;;24.13;45.83
52105;BME280;38103;42.776;23.112;2022-09-30T11:21:25;93970.16;;;24.40;44.04
52105;BME280;38103;42.776;23.112;2022-09-30T11:38:04;93968.50;;;24.57;42.84
52105;BME280;38103;42.776;23.112;2022-09-30T11:41:07;93966.88;;;24.56;42.18
52105;BME280;38103;42.776;23.112;2022-09-30T11:43:46;93970.72;;;24.55;42.94
52105;BME280;38103;42.776;23.112;2022-09-30T11:57:55;93966.72;;;24.61;39.85
52105;BME280;38103;42.776;23.112;2022-09-30T12:00:23;93974.63;;;24.75;43.15
52105;BME280;38103;42.776;23.112;2022-09-30T12:02:52;93982.63;;;24.63;41.45
52105;BME280;38103;42.776;23.112;2022-09-30T12:05:33;93983.72;;;24.71;41.68
52105;BME280;38103;42.776;23.112;2022-09-30T12:08:26;93980.66;;;24.15;40.52
52105;BME280;38103;42.776;23.112;2022-09-30T12:11:00;93984.19;;;24.07;41.13
52105;BME280;38103;42.776;23.112;2022-09-30T12:13:39;93979.91;;;23.79;41.79
52105;BME280;38103;42.776;23.112;2022-09-30T12:16:11;93980.69;;;23.80;42.40
52105;BME280;38103;42.776;23.112;2022-09-30T12:18:42;93983.38;;;23.97;43.96
52105;BME280;38103;42.776;23.112;2022-09-30T12:21:16;93956.25;;;23.85;41.89
52105;BME280;38103;42.776;23.112;2022-09-30T12:23:49;93989.25;;;23.99;42.41
52105;BME280;38103;42.776;23.112;2022-09-30T12:26:19;93983.84;;;23.99;42.49
52105;BME280;38103;42.776;23.112;2022-09-30T12:28:57;93989.44;;;23.85;42.11
52105;BME280;38103;42.776;23.112;2022-09-30T12:42:13;93975.75;;;23.99;43.40
52105;BME280;38103;42.776;23.112;2022-09-30T12:45:11;93977.16;;;24.24;42.75
52105;BME280;38103;42.776;23.112;2022-09-30T12:47:47;93988.44;;;24.35;40.19
52105;BME280;38103;42.776;23.112;2022-09-30T12:50:19;93982.69;;;24.36;40.95
52105;BME280;38103;42.776;23.112;2022-09-30T12:52:47;93985.06;;;24.47;41.96
52105;BME280;38103;42.776;23.112;2022-09-30T12:57:50;93991.72;;;24.58;41.37
52105;BME280;38103;42.776;23.112;2022-09-30T13:00:28;93993.56;;;24.66;40.89
52105;BME280;38103;42.776;23.112;2022-09-30T13:03:07;93991.09;;;24.43;40.40
52105;BME280;38103;42.776;23.112;2022-09-30T13:10:43;93990.47;;;24.47;40.51
52105;BME280;38103;42.776;23.112;2022-09-30T13:28:52;93981.31;;;24.30;42.61
52105;BME280;38103;42.776;23.112;2022-09-30T13:31:23;93969.88;;;23.97;40.51
52105;BME280;38103;42.776;23.112;2022-09-30T13:36:40;94011.94;;;24.43;42.46
52105;BME280;38103;42.776;23.112;2022-09-30T13:44:56;94008.44;;;24.33;41.33
52105;BME280;38103;42.776;23.112;2022-09-30T13:47:30;94009.56;;;24.24;40.33
52105;BME280;38103;42.776;23.112;2022-09-30T13:50:24;94017.50;;;24.20;40.28
52105;BME280;38103;42.776;23.112;2022-09-30T13:52:55;93978.63;;;23.85;40.27
52105;BME280;38103;42.776;23.112;2022-09-30T13:55:51;94012.13;;;24.11;42.10
52105;BME280;38103;42.776;23.112;2022-09-30T14:17:44;94038.00;;;23.94;40.86
52105;BME280;38103;42.776;23.112;2022-09-30T14:22:57;94036.41;;;24.02;41.07
52105;BME280;38103;42.776;23.112;2022-09-30T14:25:23;94039.75;;;24.08;41.51
52105;BME280;38103;42.776;23.112;2022-09-30T14:28:06;94015.00;;;23.88;41.57
52105;BME280;38103;42.776;23.112;2022-09-30T14:30:40;94041.84;;;23.93;40.71
52105;BME280;38103;42.776;23.112;2022-09-30T14:33:21;94047.41;;;23.88;41.10
52105;BME280;38103;42.776;23.112;2022-09-30T14:35:51;94031.19;;;23.70;40.97
52105;BME280;38103;42.776;23.112;2022-09-30T14:38:23;94042.47;;;23.72;40.30
52105;BME280;38103;42.776;23.112;2022-09-30T14:40:55;94047.38;;;23.52;40.12
52105;BME280;38103;42.776;23.112;2022-09-30T14:43:32;94049.28;;;23.61;41.30
52105;BME280;38103;42.776;23.112;2022-09-30T14:46:27;94049.94;;;23.75;42.75
52105;BME280;38103;42.776;23.112;2022-09-30T14:48:56;94053.25;;;23.81;42.99
52105;BME280;38103;42.776;23.112;2022-09-30T14:51:24;94067.56;;;23.73;43.49
52105;BME280;38103;42.776;23.112;2022-09-30T14:53:54;94068.69;;;23.81;43.60
52105;BME280;38103;42.776;23.112;2022-09-30T14:56:21;94067.56;;;23.82;44.02
52105;BME280;38103;42.776;23.112;2022-09-30T14:58:47;94063.09;;;23.59;42.88
52105;BME280;38103;42.776;23.112;2022-09-30T15:01:17;94061.50;;;23.67;44.05
52105;BME280;38103;42.776;23.112;2022-09-30T15:03:56;94063.13;;;23.68;43.78
52105;BME280;38103;42.776;23.112;2022-09-30T15:06:28;94067.00;;;23.44;41.38
52105;BME280;38103;42.776;23.112;2022-09-30T15:09:14;94068.47;;;23.50;43.40
52105;BME280;38103;42.776;23.112;2022-09-30T15:11:41;94059.84;;;23.48;44.09
52105;BME280;38103;42.776;23.112;2022-09-30T15:14:14;94055.88;;;23.37;43.30
52105;BME280;38103;42.776;23.112;2022-09-30T15:16:53;94070.31;;;23.41;43.54
52105;BME280;38103;42.776;23.112;2022-09-30T15:19:25;94070.59;;;23.30;44.45
52105;BME280;38103;42.776;23.112;2022-09-30T15:21:53;94080.66;;;22.98;42.94
52105;BME280;38103;42.776;23.112;2022-09-30T15:24:21;94081.44;;;22.66;43.63
52105;BME280;38103;42.776;23.112;2022-09-30T15:26:47;94090.03;;;22.46;45.75
52105;BME280;38103;42.776;23.112;2022-09-30T15:29:15;94090.25;;;22.12;45.77
52105;BME280;38103;42.776;23.112;2022-09-30T15:32:19;94065.56;;;21.59;47.13
52105;BME280;38103;42.776;23.112;2022-09-30T15:34:45;94106.84;;;21.54;47.13
52105;BME280;38103;42.776;23.112;2022-09-30T15:37:22;94103.84;;;21.27;47.48
52105;BME280;38103;42.776;23.112;2022-09-30T15:39:48;94095.50;;;21.15;49.32
52105;BME280;38103;42.776;23.112;2022-09-30T15:42:59;94069.44;;;20.68;50.73
52105;BME280;38103;42.776;23.112;2022-09-30T15:45:47;94105.97;;;20.69;52.70
52105;BME280;38103;42.776;23.112;2022-09-30T15:50:47;94116.63;;;20.02;56.80
52105;BME280;38103;42.776;23.112;2022-09-30T15:55:42;94112.19;;;19.53;58.48
52105;BME280;38103;42.776;23.112;2022-09-30T15:58:31;94118.59;;;19.33;59.18
52105;BME280;38103;42.776;23.112;2022-09-30T16:01:19;94115.44;;;19.25;57.04
52105;BME280;38103;42.776;23.112;2022-09-30T16:03:55;94122.91;;;19.28;56.19
52105;BME280;38103;42.776;23.112;2022-09-30T16:09:54;94135.44;;;19.33;56.02
52105;BME280;38103;42.776;23.112;2022-09-30T16:15:00;94145.41;;;19.33;56.35
52105;BME280;38103;42.776;23.112;2022-09-30T16:17:34;94144.91;;;19.25;56.18
52105;BME280;38103;42.776;23.112;2022-09-30T16:20:20;94110.34;;;18.99;55.91
52105;BME280;38103;42.776;23.112;2022-09-30T16:30:23;94162.16;;;19.19;56.14
52105;BME280;38103;42.776;23.112;2022-09-30T16:32:51;94153.13;;;19.09;55.88
52105;BME280;38103;42.776;23.112;2022-09-30T16:35:25;94150.50;;;19.04;56.39
52105;BME280;38103;42.776;23.112;2022-09-30T16:38:02;94158.09;;;18.92;56.33
52105;BME280;38103;42.776;23.112;2022-09-30T16:40:29;94160.81;;;18.86;55.83
52105;BME280;38103;42.776;23.112;2022-09-30T16:42:55;94114.00;;;18.49;55.61